sensor_id;sensor_type;location;lat;lon;timestamp;P1;durP1;ratioP1;P2;durP2;ratioP2
46845;SDS011;33947;46.804;134.252;2022-11-20T00:02:59;17.77;;;10.98;;
46845;SDS011;33947;46.804;134.252;2022-11-20T00:06:04;17.20;;;11.05;;
46845;SDS011;33947;46.804;134.252;2022-11-20T00:09:10;17.48;;;9.88;;
46845;SDS011;33947;46.804;134.252;2022-11-20T00:12:15;18.70;;;10.38;;
46845;SDS011;33947;46.804;134.252;2022-11-20T00:15:19;14.00;;;8.75;;
46845;SDS011;33947;46.804;134.252;2022-11-20T00:18:24;19.92;;;12.48;;
46845;SDS011;33947;46.804;134.252;2022-11-20T00:21:29;22.77;;;10.48;;
46845;SDS011;33947;46.804;134.252;2022-11-20T00:24:34;16.58;;;10.05;;
46845;SDS011;33947;46.804;134.252;2022-11-20T00:27:44;29.67;;;20.08;;
46845;SDS011;33947;46.804;134.252;2022-11-20T00:30:48;45.95;;;24.40;;
46845;SDS011;33947;46.804;134.252;2022-11-20T00:33:53;37.10;;;21.38;;
46845;SDS011;33947;46.804;134.252;2022-11-20T00:36:57;36.60;;;22.67;;
46845;SDS011;33947;46.804;134.252;2022-11-20T00:40:02;26.05;;;15.88;;
46845;SDS011;33947;46.804;134.252;2022-11-20T00:43:07;16.05;;;9.85;;
46845;SDS011;33947;46.804;134.252;2022-11-20T00:46:15;19.13;;;13.38;;
46845;SDS011;33947;46.804;134.252;2022-11-20T00:49:21;12.30;;;8.30;;
46845;SDS011;33947;46.804;134.252;2022-11-20T00:52:26;13.93;;;8.20;;
46845;SDS011;33947;46.804;134.252;2022-11-20T00:55:30;14.77;;;8.20;;
46845;SDS011;33947;46.804;134.252;2022-11-20T00:58:35;12.63;;;7.72;;
46845;SDS011;33947;46.804;134.252;2022-11-20T01:01:42;10.90;;;7.05;;
46845;SDS011;33947;46.804;134.252;2022-11-20T01:04:46;13.55;;;9.07;;
46845;SDS011;33947;46.804;134.252;2022-11-20T01:07:58;14.73;;;9.77;;
46845;SDS011;33947;46.804;134.252;2022-11-20T01:11:07;15.85;;;8.85;;
46845;SDS011;33947;46.804;134.252;2022-11-20T01:14:19;13.45;;;9.73;;
46845;SDS011;33947;46.804;134.252;2022-11-20T01:17:26;14.95;;;9.23;;
46845;SDS011;33947;46.804;134.252;2022-11-20T01:20:34;10.68;;;7.35;;
46845;SDS011;33947;46.804;134.252;2022-11-20T01:23:41;12.80;;;7.68;;
46845;SDS011;33947;46.804;134.252;2022-11-20T01:26:47;10.80;;;7.88;;
46845;SDS011;33947;46.804;134.252;2022-11-20T01:29:53;12.10;;;7.00;;
46845;SDS011;33947;46.804;134.252;2022-11-20T01:33:04;11.48;;;6.90;;
46845;SDS011;33947;46.804;134.252;2022-11-20T01:36:10;9.10;;;6.80;;
46845;SDS011;33947;46.804;134.252;2022-11-20T01:39:16;9.85;;;7.00;;
46845;SDS011;33947;46.804;134.252;2022-11-20T01:42:26;8.43;;;6.10;;
46845;SDS011;33947;46.804;134.252;2022-11-20T01:52:55;17.13;;;9.25;;
46845;SDS011;33947;46.804;134.252;2022-11-20T01:56:08;11.30;;;7.82;;
46845;SDS011;33947;46.804;134.252;2022-11-20T01:59:16;16.67;;;7.78;;
46845;SDS011;33947;46.804;134.252;2022-11-20T02:02:23;13.18;;;8.05;;
46845;SDS011;33947;46.804;134.252;2022-11-20T02:05:31;12.48;;;7.20;;
46845;SDS011;33947;46.804;134.252;2022-11-20T02:09:00;22.52;;;13.82;;
46845;SDS011;33947;46.804;134.252;2022-11-20T02:12:11;15.07;;;8.70;;
46845;SDS011;33947;46.804;134.252;2022-11-20T02:15:58;12.65;;;8.50;;
46845;SDS011;33947;46.804;134.252;2022-11-20T02:19:04;13.57;;;9.10;;
46845;SDS011;33947;46.804;134.252;2022-11-20T02:25:48;12.90;;;8.27;;
46845;SDS011;33947;46.804;134.252;2022-11-20T02:28:55;14.57;;;9.60;;
46845;SDS011;33947;46.804;134.252;2022-11-20T02:32:02;13.65;;;8.35;;
46845;SDS011;33947;46.804;134.252;2022-11-20T02:38:24;16.75;;;10.18;;
46845;SDS011;33947;46.804;134.252;2022-11-20T02:41:30;18.00;;;11.40;;
46845;SDS011;33947;46.804;134.252;2022-11-20T02:44:36;15.52;;;10.27;;
46845;SDS011;33947;46.804;134.252;2022-11-20T02:47:40;17.65;;;11.38;;
46845;SDS011;33947;46.804;134.252;2022-11-20T02:50:45;17.52;;;10.23;;
46845;SDS011;33947;46.804;134.252;2022-11-20T02:53:49;18.13;;;11.05;;
46845;SDS011;33947;46.804;134.252;2022-11-20T02:56:54;15.27;;;9.57;;
46845;SDS011;33947;46.804;134.252;2022-11-20T02:59:58;16.00;;;10.40;;
46845;SDS011;33947;46.804;134.252;2022-11-20T03:03:05;17.55;;;12.07;;
46845;SDS011;33947;46.804;134.252;2022-11-20T03:06:11;19.15;;;13.30;;
46845;SDS011;33947;46.804;134.252;2022-11-20T03:09:16;20.80;;;10.77;;
46845;SDS011;33947;46.804;134.252;2022-11-20T03:12:20;24.63;;;12.77;;
46845;SDS011;33947;46.804;134.252;2022-11-20T03:15:25;21.92;;;12.70;;
46845;SDS011;33947;46.804;134.252;2022-11-20T03:18:29;23.38;;;15.20;;
46845;SDS011;33947;46.804;134.252;2022-11-20T03:21:34;29.67;;;22.90;;
46845;SDS011;33947;46.804;134.252;2022-11-20T03:24:38;19.30;;;11.23;;
46845;SDS011;33947;46.804;134.252;2022-11-20T03:27:43;16.98;;;10.02;;
46845;SDS011;33947;46.804;134.252;2022-11-20T03:30:47;18.33;;;10.57;;
46845;SDS011;33947;46.804;134.252;2022-11-20T03:33:51;20.48;;;12.50;;
46845;SDS011;33947;46.804;134.252;2022-11-20T03:36:56;15.23;;;10.18;;
46845;SDS011;33947;46.804;134.252;2022-11-20T03:40:00;19.63;;;10.80;;
46845;SDS011;33947;46.804;134.252;2022-11-20T03:43:05;26.42;;;16.38;;
46845;SDS011;33947;46.804;134.252;2022-11-20T03:46:09;19.77;;;11.50;;
46845;SDS011;33947;46.804;134.252;2022-11-20T03:49:14;21.20;;;12.40;;
46845;SDS011;33947;46.804;134.252;2022-11-20T03:52:19;15.82;;;10.43;;
46845;SDS011;33947;46.804;134.252;2022-11-20T03:55:23;19.50;;;11.27;;
46845;SDS011;33947;46.804;134.252;2022-11-20T03:58:27;17.30;;;10.60;;
46845;SDS011;33947;46.804;134.252;2022-11-20T04:01:33;19.73;;;10.00;;
46845;SDS011;33947;46.804;134.252;2022-11-20T04:04:40;18.60;;;10.93;;
46845;SDS011;33947;46.804;134.252;2022-11-20T04:07:44;20.15;;;12.38;;
46845;SDS011;33947;46.804;134.252;2022-11-20T04:10:49;18.23;;;11.15;;
46845;SDS011;33947;46.804;134.252;2022-11-20T04:13:56;18.08;;;10.48;;
46845;SDS011;33947;46.804;134.252;2022-11-20T04:17:03;21.45;;;11.85;;
46845;SDS011;33947;46.804;134.252;2022-11-20T04:20:08;19.42;;;11.18;;
46845;SDS011;33947;46.804;134.252;2022-11-20T04:23:12;22.13;;;12.07;;
46845;SDS011;33947;46.804;134.252;2022-11-20T04:26:17;23.70;;;11.52;;
46845;SDS011;33947;46.804;134.252;2022-11-20T04:29:21;19.63;;;11.88;;
46845;SDS011;33947;46.804;134.252;2022-11-20T04:32:25;17.92;;;10.15;;
46845;SDS011;33947;46.804;134.252;2022-11-20T04:35:30;19.10;;;10.63;;
46845;SDS011;33947;46.804;134.252;2022-11-20T04:38:40;19.70;;;11.80;;
46845;SDS011;33947;46.804;134.252;2022-11-20T04:41:45;20.83;;;10.50;;
46845;SDS011;33947;46.804;134.252;2022-11-20T04:44:49;20.65;;;10.35;;
46845;SDS011;33947;46.804;134.252;2022-11-20T04:47:53;26.33;;;13.57;;
46845;SDS011;33947;46.804;134.252;2022-11-20T04:51:02;25.70;;;12.48;;
46845;SDS011;33947;46.804;134.252;2022-11-20T04:54:08;21.00;;;10.45;;
46845;SDS011;33947;46.804;134.252;2022-11-20T04:57:13;35.42;;;14.23;;
46845;SDS011;33947;46.804;134.252;2022-11-20T05:00:19;23.40;;;13.05;;
46845;SDS011;33947;46.804;134.252;2022-11-20T05:03:23;28.52;;;13.00;;
46845;SDS011;33947;46.804;134.252;2022-11-20T05:06:27;21.15;;;11.90;;
46845;SDS011;33947;46.804;134.252;2022-11-20T05:09:32;26.17;;;12.95;;
46845;SDS011;33947;46.804;134.252;2022-11-20T05:12:36;18.10;;;11.35;;
46845;SDS011;33947;46.804;134.252;2022-11-20T05:15:41;23.55;;;12.55;;
46845;SDS011;33947;46.804;134.252;2022-11-20T05:18:45;18.08;;;10.52;;
46845;SDS011;33947;46.804;134.252;2022-11-20T05:21:50;20.00;;;11.93;;
46845;SDS011;33947;46.804;134.252;2022-11-20T05:24:54;19.17;;;9.60;;
46845;SDS011;33947;46.804;134.252;2022-11-20T05:27:59;17.23;;;9.98;;
46845;SDS011;33947;46.804;134.252;2022-11-20T05:31:07;18.65;;;9.15;;
46845;SDS011;33947;46.804;134.252;2022-11-20T05:34:13;17.52;;;8.95;;
46845;SDS011;33947;46.804;134.252;2022-11-20T05:37:18;19.70;;;10.10;;
46845;SDS011;33947;46.804;134.252;2022-11-20T05:40:22;15.05;;;9.30;;
46845;SDS011;33947;46.804;134.252;2022-11-20T05:43:27;16.00;;;9.00;;
46845;SDS011;33947;46.804;134.252;2022-11-20T05:46:32;12.88;;;8.27;;
46845;SDS011;33947;46.804;134.252;2022-11-20T05:49:36;84.95;;;50.75;;
46845;SDS011;33947;46.804;134.252;2022-11-20T05:52:40;32.42;;;15.68;;
46845;SDS011;33947;46.804;134.252;2022-11-20T05:55:45;15.85;;;8.38;;
46845;SDS011;33947;46.804;134.252;2022-11-20T05:58:50;14.30;;;8.57;;
46845;SDS011;33947;46.804;134.252;2022-11-20T06:01:54;14.95;;;9.25;;
46845;SDS011;33947;46.804;134.252;2022-11-20T06:04:59;14.98;;;8.73;;
46845;SDS011;33947;46.804;134.252;2022-11-20T06:08:04;16.35;;;8.43;;
46845;SDS011;33947;46.804;134.252;2022-11-20T06:11:09;16.38;;;8.90;;
46845;SDS011;33947;46.804;134.252;2022-11-20T06:14:16;14.13;;;8.18;;
46845;SDS011;33947;46.804;134.252;2022-11-20T06:17:20;18.25;;;9.57;;
46845;SDS011;33947;46.804;134.252;2022-11-20T06:20:24;14.95;;;8.52;;
46845;SDS011;33947;46.804;134.252;2022-11-20T06:23:29;16.23;;;9.45;;
46845;SDS011;33947;46.804;134.252;2022-11-20T06:26:35;30.13;;;13.27;;
46845;SDS011;33947;46.804;134.252;2022-11-20T06:29:40;18.05;;;9.52;;
46845;SDS011;33947;46.804;134.252;2022-11-20T06:32:44;20.95;;;10.43;;
46845;SDS011;33947;46.804;134.252;2022-11-20T06:35:49;40.22;;;14.15;;
46845;SDS011;33947;46.804;134.252;2022-11-20T06:39:01;27.25;;;11.05;;
46845;SDS011;33947;46.804;134.252;2022-11-20T06:42:06;76.97;;;29.42;;
46845;SDS011;33947;46.804;134.252;2022-11-20T06:45:14;61.78;;;25.08;;
46845;SDS011;33947;46.804;134.252;2022-11-20T06:48:18;45.00;;;19.80;;
46845;SDS011;33947;46.804;134.252;2022-11-20T06:51:23;30.20;;;13.90;;
46845;SDS011;33947;46.804;134.252;2022-11-20T06:54:28;39.30;;;16.05;;
46845;SDS011;33947;46.804;134.252;2022-11-20T06:57:32;46.53;;;23.05;;
46845;SDS011;33947;46.804;134.252;2022-11-20T07:00:36;44.53;;;23.65;;
46845;SDS011;33947;46.804;134.252;2022-11-20T07:03:41;21.90;;;13.75;;
46845;SDS011;33947;46.804;134.252;2022-11-20T07:06:46;23.30;;;13.75;;
46845;SDS011;33947;46.804;134.252;2022-11-20T07:09:52;20.00;;;12.20;;
46845;SDS011;33947;46.804;134.252;2022-11-20T07:12:56;22.30;;;12.13;;
46845;SDS011;33947;46.804;134.252;2022-11-20T07:16:01;15.57;;;8.90;;
46845;SDS011;33947;46.804;134.252;2022-11-20T07:19:07;16.90;;;9.25;;
46845;SDS011;33947;46.804;134.252;2022-11-20T07:22:11;20.05;;;10.48;;
46845;SDS011;33947;46.804;134.252;2022-11-20T07:25:16;14.30;;;8.75;;
46845;SDS011;33947;46.804;134.252;2022-11-20T07:28:20;33.38;;;15.68;;
46845;SDS011;33947;46.804;134.252;2022-11-20T07:31:25;82.65;;;34.45;;
46845;SDS011;33947;46.804;134.252;2022-11-20T07:34:29;120.63;;;46.45;;
46845;SDS011;33947;46.804;134.252;2022-11-20T07:37:36;79.45;;;34.30;;
46845;SDS011;33947;46.804;134.252;2022-11-20T07:40:41;65.28;;;30.05;;
46845;SDS011;33947;46.804;134.252;2022-11-20T07:43:45;82.25;;;36.95;;
46845;SDS011;33947;46.804;134.252;2022-11-20T07:46:49;66.47;;;32.05;;
46845;SDS011;33947;46.804;134.252;2022-11-20T07:49:54;41.30;;;20.48;;
46845;SDS011;33947;46.804;134.252;2022-11-20T07:53:04;30.60;;;15.82;;
46845;SDS011;33947;46.804;134.252;2022-11-20T07:56:11;27.10;;;15.25;;
46845;SDS011;33947;46.804;134.252;2022-11-20T08:02:22;264.58;;;83.78;;
46845;SDS011;33947;46.804;134.252;2022-11-20T08:05:26;97.43;;;43.85;;
46845;SDS011;33947;46.804;134.252;2022-11-20T08:08:31;95.28;;;43.15;;
46845;SDS011;33947;46.804;134.252;2022-11-20T08:11:40;36.58;;;18.35;;
46845;SDS011;33947;46.804;134.252;2022-11-20T08:15:03;33.15;;;15.13;;
46845;SDS011;33947;46.804;134.252;2022-11-20T08:18:14;49.47;;;21.25;;
46845;SDS011;33947;46.804;134.252;2022-11-20T08:21:34;54.47;;;24.13;;
46845;SDS011;33947;46.804;134.252;2022-11-20T08:24:40;97.78;;;30.27;;
46845;SDS011;33947;46.804;134.252;2022-11-20T08:27:44;209.38;;;50.85;;
46845;SDS011;33947;46.804;134.252;2022-11-20T08:30:49;108.95;;;35.78;;
46845;SDS011;33947;46.804;134.252;2022-11-20T08:33:54;151.87;;;40.77;;
46845;SDS011;33947;46.804;134.252;2022-11-20T08:36:58;139.50;;;35.20;;
46845;SDS011;33947;46.804;134.252;2022-11-20T08:40:03;164.63;;;69.28;;
46845;SDS011;33947;46.804;134.252;2022-11-20T08:43:08;75.57;;;37.87;;
46845;SDS011;33947;46.804;134.252;2022-11-20T08:46:12;65.38;;;29.13;;
46845;SDS011;33947;46.804;134.252;2022-11-20T08:49:17;66.63;;;27.92;;
46845;SDS011;33947;46.804;134.252;2022-11-20T08:52:22;63.83;;;27.38;;
46845;SDS011;33947;46.804;134.252;2022-11-20T08:55:27;72.93;;;29.17;;
46845;SDS011;33947;46.804;134.252;2022-11-20T08:58:31;43.25;;;20.85;;
46845;SDS011;33947;46.804;134.252;2022-11-20T09:01:56;55.13;;;26.73;;
46845;SDS011;33947;46.804;134.252;2022-11-20T09:05:00;65.93;;;29.73;;
46845;SDS011;33947;46.804;134.252;2022-11-20T09:08:05;48.77;;;25.70;;
46845;SDS011;33947;46.804;134.252;2022-11-20T09:11:10;33.83;;;21.50;;
46845;SDS011;33947;46.804;134.252;2022-11-20T09:14:14;26.67;;;16.23;;
46845;SDS011;33947;46.804;134.252;2022-11-20T09:17:19;125.82;;;45.78;;
46845;SDS011;33947;46.804;134.252;2022-11-20T09:20:23;427.70;;;138.40;;
46845;SDS011;33947;46.804;134.252;2022-11-20T09:23:32;461.95;;;153.68;;
46845;SDS011;33947;46.804;134.252;2022-11-20T09:26:39;443.65;;;145.07;;
46845;SDS011;33947;46.804;134.252;2022-11-20T09:29:43;251.40;;;93.32;;
46845;SDS011;33947;46.804;134.252;2022-11-20T09:32:48;401.90;;;117.15;;
46845;SDS011;33947;46.804;134.252;2022-11-20T09:35:52;430.15;;;130.98;;
46845;SDS011;33947;46.804;134.252;2022-11-20T09:38:57;174.80;;;60.50;;
46845;SDS011;33947;46.804;134.252;2022-11-20T09:55:03;119.53;;;45.30;;
46845;SDS011;33947;46.804;134.252;2022-11-20T09:58:21;167.73;;;62.20;;
46845;SDS011;33947;46.804;134.252;2022-11-20T10:01:30;187.35;;;71.10;;
46845;SDS011;33947;46.804;134.252;2022-11-20T10:04:39;91.97;;;39.03;;
46845;SDS011;33947;46.804;134.252;2022-11-20T10:11:38;155.18;;;57.88;;
46845;SDS011;33947;46.804;134.252;2022-11-20T10:15:01;96.75;;;47.08;;
46845;SDS011;33947;46.804;134.252;2022-11-20T10:27:59;124.10;;;54.20;;
46845;SDS011;33947;46.804;134.252;2022-11-20T10:38:00;188.65;;;65.55;;
46845;SDS011;33947;46.804;134.252;2022-11-20T10:41:07;197.52;;;70.00;;
46845;SDS011;33947;46.804;134.252;2022-11-20T10:44:31;157.82;;;59.92;;
46845;SDS011;33947;46.804;134.252;2022-11-20T10:48:07;154.70;;;63.08;;
46845;SDS011;33947;46.804;134.252;2022-11-20T10:54:36;121.45;;;53.13;;
46845;SDS011;33947;46.804;134.252;2022-11-20T11:01:17;118.53;;;54.70;;
46845;SDS011;33947;46.804;134.252;2022-11-20T11:04:36;104.93;;;51.22;;
46845;SDS011;33947;46.804;134.252;2022-11-20T11:07:48;109.13;;;50.30;;
46845;SDS011;33947;46.804;134.252;2022-11-20T11:10:57;137.73;;;69.35;;
46845;SDS011;33947;46.804;134.252;2022-11-20T11:14:12;137.35;;;66.10;;
46845;SDS011;33947;46.804;134.252;2022-11-20T11:17:28;118.55;;;54.78;;
46845;SDS011;33947;46.804;134.252;2022-11-20T11:20:37;116.43;;;56.35;;
46845;SDS011;33947;46.804;134.252;2022-11-20T11:23:42;81.85;;;42.05;;
46845;SDS011;33947;46.804;134.252;2022-11-20T11:26:57;95.68;;;46.22;;
46845;SDS011;33947;46.804;134.252;2022-11-20T11:30:15;100.68;;;48.17;;
46845;SDS011;33947;46.804;134.252;2022-11-20T11:33:26;91.15;;;45.50;;
46845;SDS011;33947;46.804;134.252;2022-11-20T11:36:30;89.75;;;47.40;;
46845;SDS011;33947;46.804;134.252;2022-11-20T11:39:40;98.50;;;47.00;;
46845;SDS011;33947;46.804;134.252;2022-11-20T11:42:53;105.10;;;50.63;;
46845;SDS011;33947;46.804;134.252;2022-11-20T11:46:02;108.75;;;50.15;;
46845;SDS011;33947;46.804;134.252;2022-11-20T11:49:15;147.70;;;53.15;;
46845;SDS011;33947;46.804;134.252;2022-11-20T11:52:21;146.02;;;48.55;;
46845;SDS011;33947;46.804;134.252;2022-11-20T11:59:04;46.80;;;21.35;;
46845;SDS011;33947;46.804;134.252;2022-11-20T12:06:09;107.32;;;39.13;;
46845;SDS011;33947;46.804;134.252;2022-11-20T12:09:17;119.50;;;39.20;;
46845;SDS011;33947;46.804;134.252;2022-11-20T12:12:32;152.98;;;50.35;;
46845;SDS011;33947;46.804;134.252;2022-11-20T12:15:44;99.28;;;38.55;;
46845;SDS011;33947;46.804;134.252;2022-11-20T12:18:51;86.78;;;36.75;;
46845;SDS011;33947;46.804;134.252;2022-11-20T12:22:02;74.43;;;32.70;;
46845;SDS011;33947;46.804;134.252;2022-11-20T12:25:11;52.42;;;25.20;;
46845;SDS011;33947;46.804;134.252;2022-11-20T12:49:35;51.22;;;24.40;;
46845;SDS011;33947;46.804;134.252;2022-11-20T13:00:02;103.07;;;37.63;;
46845;SDS011;33947;46.804;134.252;2022-11-20T13:03:33;69.50;;;31.15;;
46845;SDS011;33947;46.804;134.252;2022-11-20T13:06:59;56.75;;;26.17;;
46845;SDS011;33947;46.804;134.252;2022-11-20T13:10:18;75.75;;;28.10;;
46845;SDS011;33947;46.804;134.252;2022-11-20T13:17:02;224.27;;;62.65;;
46845;SDS011;33947;46.804;134.252;2022-11-20T13:23:29;318.70;;;77.75;;
46845;SDS011;33947;46.804;134.252;2022-11-20T13:26:34;364.20;;;84.75;;
46845;SDS011;33947;46.804;134.252;2022-11-20T13:29:40;123.93;;;44.80;;
46845;SDS011;33947;46.804;134.252;2022-11-20T13:36:22;105.47;;;37.38;;
46845;SDS011;33947;46.804;134.252;2022-11-20T13:39:33;83.25;;;31.92;;
46845;SDS011;33947;46.804;134.252;2022-11-20T13:46:00;129.77;;;41.28;;
46845;SDS011;33947;46.804;134.252;2022-11-20T13:49:10;122.00;;;40.90;;
46845;SDS011;33947;46.804;134.252;2022-11-20T14:02:26;90.60;;;36.58;;
46845;SDS011;33947;46.804;134.252;2022-11-20T14:05:36;80.90;;;34.58;;
46845;SDS011;33947;46.804;134.252;2022-11-20T14:08:44;87.53;;;35.78;;
46845;SDS011;33947;46.804;134.252;2022-11-20T14:11:50;81.13;;;34.97;;
46845;SDS011;33947;46.804;134.252;2022-11-20T14:14:55;70.57;;;30.55;;
46845;SDS011;33947;46.804;134.252;2022-11-20T14:18:10;67.38;;;31.52;;
46845;SDS011;33947;46.804;134.252;2022-11-20T14:21:26;53.60;;;24.83;;
46845;SDS011;33947;46.804;134.252;2022-11-20T14:24:33;70.97;;;28.92;;
46845;SDS011;33947;46.804;134.252;2022-11-20T14:27:38;76.93;;;32.25;;
46845;SDS011;33947;46.804;134.252;2022-11-20T14:30:45;68.65;;;29.48;;
46845;SDS011;33947;46.804;134.252;2022-11-20T14:33:54;54.78;;;25.33;;
46845;SDS011;33947;46.804;134.252;2022-11-20T14:37:00;59.63;;;25.85;;
46845;SDS011;33947;46.804;134.252;2022-11-20T14:40:28;57.72;;;25.63;;
46845;SDS011;33947;46.804;134.252;2022-11-20T14:43:34;51.47;;;24.23;;
46845;SDS011;33947;46.804;134.252;2022-11-20T14:46:41;56.70;;;25.15;;
46845;SDS011;33947;46.804;134.252;2022-11-20T14:49:48;39.65;;;19.33;;
46845;SDS011;33947;46.804;134.252;2022-11-20T14:52:55;34.80;;;15.82;;
46845;SDS011;33947;46.804;134.252;2022-11-20T14:56:03;37.83;;;19.58;;
46845;SDS011;33947;46.804;134.252;2022-11-20T14:59:08;29.27;;;14.95;;
46845;SDS011;33947;46.804;134.252;2022-11-20T15:02:13;31.20;;;14.32;;
46845;SDS011;33947;46.804;134.252;2022-11-20T15:05:19;59.20;;;25.73;;
46845;SDS011;33947;46.804;134.252;2022-11-20T15:08:25;69.30;;;25.95;;
46845;SDS011;33947;46.804;134.252;2022-11-20T15:11:31;52.65;;;23.52;;
46845;SDS011;33947;46.804;134.252;2022-11-20T15:14:40;108.47;;;44.30;;
46845;SDS011;33947;46.804;134.252;2022-11-20T15:17:44;128.13;;;47.70;;
46845;SDS011;33947;46.804;134.252;2022-11-20T15:20:49;102.95;;;39.45;;
46845;SDS011;33947;46.804;134.252;2022-11-20T15:23:54;99.68;;;41.47;;
46845;SDS011;33947;46.804;134.252;2022-11-20T15:26:58;103.75;;;37.83;;
46845;SDS011;33947;46.804;134.252;2022-11-20T15:30:08;89.13;;;34.85;;
46845;SDS011;33947;46.804;134.252;2022-11-20T15:33:20;81.15;;;31.55;;
46845;SDS011;33947;46.804;134.252;2022-11-20T15:36:24;70.97;;;31.98;;
46845;SDS011;33947;46.804;134.252;2022-11-20T15:39:29;63.95;;;28.08;;
46845;SDS011;33947;46.804;134.252;2022-11-20T15:42:33;64.75;;;27.92;;
46845;SDS011;33947;46.804;134.252;2022-11-20T15:45:44;68.43;;;28.83;;
46845;SDS011;33947;46.804;134.252;2022-11-20T15:48:53;79.38;;;30.30;;
46845;SDS011;33947;46.804;134.252;2022-11-20T15:51:59;75.05;;;31.58;;
46845;SDS011;33947;46.804;134.252;2022-11-20T15:55:07;79.32;;;30.98;;
46845;SDS011;33947;46.804;134.252;2022-11-20T15:58:13;71.45;;;26.50;;
46845;SDS011;33947;46.804;134.252;2022-11-20T16:01:21;60.95;;;24.83;;
46845;SDS011;33947;46.804;134.252;2022-11-20T16:04:26;58.78;;;23.15;;
46845;SDS011;33947;46.804;134.252;2022-11-20T16:07:30;62.58;;;24.20;;
46845;SDS011;33947;46.804;134.252;2022-11-20T16:10:34;43.17;;;16.35;;
46845;SDS011;33947;46.804;134.252;2022-11-20T16:13:40;31.88;;;15.13;;
46845;SDS011;33947;46.804;134.252;2022-11-20T16:17:03;23.88;;;10.25;;
46845;SDS011;33947;46.804;134.252;2022-11-20T16:20:10;13.45;;;6.95;;
46845;SDS011;33947;46.804;134.252;2022-11-20T16:23:15;12.55;;;6.10;;
46845;SDS011;33947;46.804;134.252;2022-11-20T16:26:20;9.50;;;5.20;;
46845;SDS011;33947;46.804;134.252;2022-11-20T16:29:25;13.65;;;6.85;;
46845;SDS011;33947;46.804;134.252;2022-11-20T16:32:29;11.75;;;5.00;;
46845;SDS011;33947;46.804;134.252;2022-11-20T16:35:34;9.13;;;5.15;;
46845;SDS011;33947;46.804;134.252;2022-11-20T16:38:39;9.73;;;4.93;;
46845;SDS011;33947;46.804;134.252;2022-11-20T16:41:44;9.48;;;4.47;;
46845;SDS011;33947;46.804;134.252;2022-11-20T16:44:49;51.88;;;13.75;;
46845;SDS011;33947;46.804;134.252;2022-11-20T16:47:53;8.45;;;3.88;;
46845;SDS011;33947;46.804;134.252;2022-11-20T16:50:57;6.40;;;4.13;;
46845;SDS011;33947;46.804;134.252;2022-11-20T16:54:02;8.77;;;5.05;;
46845;SDS011;33947;46.804;134.252;2022-11-20T16:57:08;8.43;;;4.22;;
46845;SDS011;33947;46.804;134.252;2022-11-20T17:00:13;9.07;;;4.72;;
46845;SDS011;33947;46.804;134.252;2022-11-20T17:03:18;7.03;;;3.58;;
46845;SDS011;33947;46.804;134.252;2022-11-20T17:06:24;7.20;;;4.17;;
46845;SDS011;33947;46.804;134.252;2022-11-20T17:09:31;9.13;;;4.40;;
46845;SDS011;33947;46.804;134.252;2022-11-20T17:12:35;10.25;;;4.60;;
46845;SDS011;33947;46.804;134.252;2022-11-20T17:15:39;13.77;;;5.40;;
46845;SDS011;33947;46.804;134.252;2022-11-20T17:18:44;6.78;;;3.72;;
46845;SDS011;33947;46.804;134.252;2022-11-20T17:21:49;9.45;;;4.90;;
46845;SDS011;33947;46.804;134.252;2022-11-20T17:24:53;10.80;;;4.57;;
46845;SDS011;33947;46.804;134.252;2022-11-20T17:27:58;26.50;;;7.15;;
46845;SDS011;33947;46.804;134.252;2022-11-20T17:31:07;26.65;;;11.30;;
46845;SDS011;33947;46.804;134.252;2022-11-20T17:34:13;23.83;;;10.48;;
46845;SDS011;33947;46.804;134.252;2022-11-20T17:37:18;19.15;;;8.43;;
46845;SDS011;33947;46.804;134.252;2022-11-20T17:40:22;25.48;;;11.23;;
46845;SDS011;33947;46.804;134.252;2022-11-20T17:43:29;27.30;;;12.00;;
46845;SDS011;33947;46.804;134.252;2022-11-20T17:46:37;25.35;;;11.20;;
46845;SDS011;33947;46.804;134.252;2022-11-20T17:49:42;27.52;;;11.32;;
46845;SDS011;33947;46.804;134.252;2022-11-20T17:52:46;30.05;;;14.15;;
46845;SDS011;33947;46.804;134.252;2022-11-20T17:55:56;28.77;;;14.40;;
46845;SDS011;33947;46.804;134.252;2022-11-20T17:59:19;30.00;;;13.43;;
46845;SDS011;33947;46.804;134.252;2022-11-20T18:02:24;28.53;;;12.33;;
46845;SDS011;33947;46.804;134.252;2022-11-20T18:05:30;20.67;;;9.63;;
46845;SDS011;33947;46.804;134.252;2022-11-20T18:08:35;30.40;;;12.57;;
46845;SDS011;33947;46.804;134.252;2022-11-20T18:11:40;19.23;;;10.07;;
46845;SDS011;33947;46.804;134.252;2022-11-20T18:17:50;20.95;;;10.77;;
46845;SDS011;33947;46.804;134.252;2022-11-20T18:20:54;28.23;;;10.93;;
46845;SDS011;33947;46.804;134.252;2022-11-20T18:24:00;26.10;;;10.98;;
46845;SDS011;33947;46.804;134.252;2022-11-20T18:27:05;32.10;;;14.63;;
46845;SDS011;33947;46.804;134.252;2022-11-20T18:30:11;23.50;;;11.10;;
46845;SDS011;33947;46.804;134.252;2022-11-20T18:33:17;37.70;;;14.60;;
46845;SDS011;33947;46.804;134.252;2022-11-20T18:36:29;26.67;;;11.75;;
46845;SDS011;33947;46.804;134.252;2022-11-20T18:39:35;30.33;;;13.07;;
46845;SDS011;33947;46.804;134.252;2022-11-20T18:42:39;29.52;;;12.48;;
46845;SDS011;33947;46.804;134.252;2022-11-20T18:46:03;29.40;;;12.55;;
46845;SDS011;33947;46.804;134.252;2022-11-20T18:49:07;27.48;;;12.25;;
46845;SDS011;33947;46.804;134.252;2022-11-20T18:52:12;25.23;;;11.75;;
46845;SDS011;33947;46.804;134.252;2022-11-20T18:55:16;24.75;;;11.27;;
46845;SDS011;33947;46.804;134.252;2022-11-20T18:58:21;31.63;;;9.98;;
46845;SDS011;33947;46.804;134.252;2022-11-20T19:01:25;19.73;;;9.90;;
46845;SDS011;33947;46.804;134.252;2022-11-20T19:04:30;24.15;;;9.52;;
46845;SDS011;33947;46.804;134.252;2022-11-20T19:07:36;26.95;;;11.07;;
46845;SDS011;33947;46.804;134.252;2022-11-20T19:10:40;25.75;;;11.02;;
46845;SDS011;33947;46.804;134.252;2022-11-20T19:13:49;25.42;;;12.10;;
46845;SDS011;33947;46.804;134.252;2022-11-20T19:16:54;32.35;;;14.38;;
46845;SDS011;33947;46.804;134.252;2022-11-20T19:19:59;34.53;;;14.15;;
46845;SDS011;33947;46.804;134.252;2022-11-20T19:23:04;42.38;;;15.40;;
46845;SDS011;33947;46.804;134.252;2022-11-20T19:26:09;33.65;;;13.75;;
46845;SDS011;33947;46.804;134.252;2022-11-20T19:29:14;34.38;;;12.75;;
46845;SDS011;33947;46.804;134.252;2022-11-20T19:32:19;50.35;;;18.73;;
46845;SDS011;33947;46.804;134.252;2022-11-20T19:35:23;34.00;;;14.15;;
46845;SDS011;33947;46.804;134.252;2022-11-20T19:38:28;32.87;;;13.53;;
46845;SDS011;33947;46.804;134.252;2022-11-20T19:41:33;41.40;;;18.38;;
46845;SDS011;33947;46.804;134.252;2022-11-20T19:44:38;33.20;;;14.65;;
46845;SDS011;33947;46.804;134.252;2022-11-20T19:47:42;23.10;;;12.13;;